Time;durP1;ratioP1;P1;durP2;ratioP2;P2;SDS_P1;SDS_P2;PMS_P1;PMS_P2;Temp;Humidity;BMP_temperature;BMP_pressure;BME280_temperature;BME280_humidity;BME280_pressure;Samples;Min_cycle;Max_cycle;Signal;HPM_P1;HPM_P2
2023/10/31 00:01:05;;;;;;;;;;;16.20;65.60;;;14.82;63.40;99142.47;12248944;19;20274;-87
2023/10/31 00:05:06;;;;;;;;;;;16.20;65.50;;;15.15;63.50;99211.09;12251830;19;19923;-86
2023/10/31 00:09:10;;;;;;;;;;;16.20;65.60;;;15.12;63.52;99210.53;12249512;19;19983;-86
2023/10/31 00:13:12;;;;;;;;;;;16.20;65.60;;;15.13;63.40;99205.16;12247302;19;19935;-86
2023/10/31 00:17:13;;;;;;;;;;;16.20;65.60;;;15.17;63.47;99213.56;12250036;19;19952;-86
2023/10/31 00:21:15;;;;;;;;;;;16.20;65.60;;;15.15;63.50;99208.47;12236807;19;20002;-86
2023/10/31 00:25:17;;;;;;;;;;;16.20;65.60;;;15.05;63.52;99187.50;12250533;19;20326;-86
2023/10/31 00:29:18;;;;;;;;;;;16.20;65.60;;;15.10;63.51;99186.22;12249051;19;20323;-87
2023/10/31 00:33:20;;;;;;;;;;;16.20;65.60;;;15.07;63.43;99186.50;12247552;19;19919;-87
2023/10/31 00:37:23;;;;;;;;;;;16.20;65.50;;;14.80;63.54;99141.78;12248628;19;19923;-87
2023/10/31 00:41:24;;;;;;;;;;;16.20;66.20;;;15.15;63.42;99194.47;12245756;19;19923;-87
2023/10/31 00:45:26;;;;;;;;;;;16.20;65.60;;;15.12;63.30;99179.00;12249839;19;19911;-87
2023/10/31 00:49:27;;;;;;;;;;;16.20;65.60;;;15.18;63.41;99184.47;12241791;19;19925;-87
2023/10/31 00:53:29;;;;;;;;;;;16.20;65.60;;;15.09;63.54;99153.00;12245746;19;19918;-87
2023/10/31 00:57:30;;;;;;;;;;;16.20;65.70;;;14.90;63.48;99127.72;12245963;19;19938;-86
2023/10/31 01:01:32;;;;;;;;;;;16.20;65.70;;;15.11;63.49;99158.94;12243594;19;19939;-87
2023/10/31 01:05:33;;;;;;;;;;;16.20;65.70;;;15.15;63.62;99155.88;12247934;19;19915;-87
2023/10/31 01:09:35;;;;;;;;;;;16.20;65.70;;;15.07;63.52;99142.66;12245497;19;19923;-87
2023/10/31 01:13:36;;;;;;;;;;;16.30;65.80;;;15.13;63.41;99135.97;12245940;19;19923;-86
2023/10/31 01:17:38;;;;;;;;;;;16.20;65.60;;;15.18;63.42;99136.34;12246386;19;20252;-87
2023/10/31 01:21:39;;;;;;;;;;;16.30;65.70;;;15.16;63.41;99143.53;12232837;19;19918;-86
2023/10/31 01:25:41;;;;;;;;;;;16.30;65.70;;;15.22;63.37;99146.38;12247190;19;19918;-86
2023/10/31 01:29:43;;;;;;;;;;;16.30;65.70;;;14.93;63.60;99086.22;12243949;19;20333;-86
2023/10/31 01:33:45;;;;;;;;;;;16.30;65.70;;;15.21;63.47;99146.53;12241936;19;20245;-86
2023/10/31 01:37:47;;;;;;;;;;;16.30;65.60;;;15.09;63.44;99117.03;12244478;19;19915;-86
2023/10/31 01:41:49;;;;;;;;;;;16.30;65.50;;;15.08;63.48;99093.53;12244355;19;19919;-86
2023/10/31 01:45:50;;;;;;;;;;;16.20;65.50;;;15.11;63.54;99095.84;12245784;19;19910;-86
2023/10/31 01:49:52;;;;;;;;;;;16.20;65.60;;;15.04;63.43;99091.22;12244647;19;19915;-87
2023/10/31 01:53:54;;;;;;;;;;;16.20;65.70;;;15.18;63.51;99089.00;12242749;19;19930;-86
2023/10/31 01:57:56;;;;;;;;;;;16.20;65.80;;;15.19;63.43;99098.53;12244461;19;19926;-86
2023/10/31 02:01:58;;;;;;;;;;;16.20;65.80;;;15.18;63.52;99099.53;12245218;19;20257;-86
2023/10/31 02:06:00;;;;;;;;;;;16.30;65.90;;;15.12;63.59;99089.59;12245033;19;20320;-86
2023/10/31 02:10:02;;;;;;;;;;;16.30;65.90;;;15.07;63.57;99092.72;12243893;19;19917;-86
2023/10/31 02:14:03;;;;;;;;;;;16.30;66.00;;;15.23;63.51;99099.88;12242616;19;19918;-86
2023/10/31 02:18:06;;;;;;;;;;;16.30;66.00;;;15.09;63.80;99055.72;12245040;19;19999;-85
2023/10/31 02:22:08;;;;;;;;;;;16.30;65.90;;;15.20;63.54;99061.56;12234814;19;19930;-85
2023/10/31 02:26:09;;;;;;;;;;;16.30;65.90;;;15.12;63.52;99048.38;12245683;19;20282;-85
2023/10/31 02:30:11;;;;;;;;;;;16.30;65.80;;;14.99;63.39;99017.25;12243458;19;19923;-85
2023/10/31 02:34:13;;;;;;;;;;;16.30;65.60;;;15.18;63.53;99053.00;12244548;19;19911;-85
2023/10/31 02:38:15;;;;;;;;;;;16.30;65.70;;;15.17;63.34;99035.56;12243827;19;19918;-85
2023/10/31 02:42:17;;;;;;;;;;;16.20;65.60;;;15.13;63.52;99033.41;12245831;19;19918;-86
2023/10/31 02:46:19;;;;;;;;;;;16.20;65.70;;;14.97;63.44;98999.97;12250063;19;19918;-86
2023/10/31 02:50:20;;;;;;;;;;;16.20;65.70;;;14.96;63.58;99007.03;12256133;19;19927;-86
2023/10/31 02:54:22;;;;;;;;;;;16.20;65.80;;;15.14;63.58;99025.38;12249309;19;19918;-86
2023/10/31 02:58:24;;;;;;;;;;;16.20;65.80;;;15.14;63.49;99020.09;12253914;19;20358;-86
2023/10/31 03:02:26;;;;;;;;;;;16.20;66.60;;;15.01;63.61;98998.66;12255073;19;19927;-86
2023/10/31 03:06:27;;;;;;;;;;;16.20;66.00;;;15.11;63.49;99009.09;12254823;19;19927;-85
2023/10/31 03:10:29;;;;;;;;;;;16.20;65.80;;;14.96;63.67;98991.28;12250545;19;19935;-86
2023/10/31 03:14:31;;;;;;;;;;;16.20;65.90;;;15.06;63.61;99004.28;12251146;19;19922;-86
2023/10/31 03:18:32;;;;;;;;;;;16.20;65.90;;;15.04;63.63;98988.69;12252953;19;19922;-86
2023/10/31 03:22:34;;;;;;;;;;;16.20;66.00;;;15.17;63.67;99004.00;12255820;19;19919;-86
2023/10/31 03:26:36;;;;;;;;;;;16.30;66.00;;;14.92;63.65;98971.53;12254743;19;19919;-86
2023/10/31 03:30:37;;;;;;;;;;;16.20;65.90;;;15.09;63.69;99005.78;12252513;19;20011;-86
2023/10/31 03:34:39;;;;;;;;;;;16.20;66.00;;;15.10;63.69;99008.25;12252487;19;20310;-85
2023/10/31 03:38:41;;;;;;;;;;;16.20;66.10;;;15.13;63.62;99012.38;12243720;19;20315;-86
2023/10/31 03:42:42;;;;;;;;;;;16.20;66.00;;;15.16;63.62;99014.69;12256482;19;19911;-86
2023/10/31 03:46:43;;;;;;;;;;;16.20;66.20;;;15.10;63.61;99007.44;12255617;19;19930;-86
2023/10/31 03:50:45;;;;;;;;;;;16.20;66.10;;;15.07;63.61;99003.31;12254028;19;19919;-86
2023/10/31 03:54:47;;;;;;;;;;;16.20;66.20;;;15.13;63.70;99023.72;12251478;19;19922;-86
2023/10/31 03:58:48;;;;;;;;;;;16.20;66.30;;;15.00;63.70;99005.72;12255873;19;19923;-87
2023/10/31 04:02:50;;;;;;;;;;;16.20;66.40;;;14.88;63.83;98988.59;12261595;19;19907;-86
2023/10/31 04:06:51;;;;;;;;;;;16.20;66.50;;;15.09;63.56;99029.44;12258919;19;19921;-86
2023/10/31 04:10:53;;;;;;;;;;;16.10;66.50;;;15.09;63.65;99025.00;12258106;19;19919;-86
2023/10/31 04:14:55;;;;;;;;;;;16.10;66.60;;;15.12;63.69;99015.97;12251410;19;19915;-86
2023/10/31 04:18:56;;;;;;;;;;;16.10;66.60;;;15.08;63.53;99015.47;12253291;19;20365;-86
2023/10/31 04:22:58;;;;;;;;;;;16.10;66.70;;;15.15;63.67;99021.78;12260792;19;19960;-81
2023/10/31 04:27:00;;;;;;;;;;;16.20;66.80;;;15.06;63.71;99006.91;12296017;19;19911;-82
2023/10/31 04:31:02;;;;;;;;;;;16.20;66.90;;;15.13;63.77;99007.13;12291752;19;19927;-82
2023/10/31 04:35:04;;;;;;;;;;;16.20;66.90;;;15.13;63.70;99015.84;12293987;19;19918;-83
2023/10/31 04:39:06;;;;;;;;;;;16.20;66.90;;;15.12;63.73;99015.97;12294393;19;19930;-82
2023/10/31 04:43:07;;;;;;;;;;;16.10;66.90;;;15.13;63.66;99017.66;12293438;19;19951;-82
2023/10/31 04:47:08;;;;;;;;;;;16.10;67.00;;;15.07;63.73;99002.47;12293501;19;19917;-82
2023/10/31 04:51:10;;;;;;;;;;;16.20;67.10;;;15.11;63.70;99003.81;12290291;19;19926;-82
2023/10/31 04:55:11;;;;;;;;;;;16.20;67.10;;;15.10;63.74;99002.19;12290074;19;20334;-82
2023/10/31 04:59:12;;;;;;;;;;;16.20;67.10;;;15.14;64.00;99008.75;12292170;19;19944;-81
2023/10/31 05:03:14;;;;;;;;;;;16.20;67.20;;;15.08;63.79;98998.88;12291151;19;19946;-82
2023/10/31 05:07:15;;;;;;;;;;;16.20;67.00;;;15.14;63.74;99009.59;12287671;19;19929;-82
2023/10/31 05:11:18;;;;;;;;;;;16.20;67.00;;;15.07;63.82;98997.22;12290005;19;19923;-82
2023/10/31 05:15:19;;;;;;;;;;;16.10;67.00;;;15.14;63.78;99014.03;12283382;19;19943;-82
2023/10/31 05:19:21;;;;;;;;;;;16.20;67.10;;;15.14;63.68;99016.66;12281591;19;19930;-82
2023/10/31 05:23:23;;;;;;;;;;;16.20;67.10;;;15.07;63.77;98992.81;12280807;19;19922;-83
2023/10/31 05:27:24;;;;;;;;;;;16.20;67.20;;;15.10;63.88;99002.19;12283257;19;19930;-83
2023/10/31 05:31:26;;;;;;;;;;;16.10;67.10;;;15.11;63.90;98999.38;12274081;19;19922;-83
2023/10/31 05:35:27;;;;;;;;;;;16.20;67.30;;;15.14;63.66;99008.75;12282536;19;19911;-83
2023/10/31 05:39:29;;;;;;;;;;;16.10;67.20;;;15.09;63.86;99013.66;12279919;19;19947;-83
2023/10/31 05:43:30;;;;;;;;;;;16.20;67.30;;;15.17;63.89;99019.78;12278757;19;19951;-83
2023/10/31 05:47:35;;;;;;;;;;;16.20;67.30;;;15.18;63.91;99023.25;12283627;19;19922;-82
2023/10/31 05:51:37;;;;;;;;;;;16.20;67.30;;;15.20;63.88;99013.41;12283250;19;19918;-83
2023/10/31 05:55:39;;;;;;;;;;;16.20;67.30;;;15.12;63.79;99006.31;12286229;19;19922;-83
2023/10/31 05:59:41;;;;;;;;;;;16.20;67.30;;;15.23;63.74;99028.88;12282379;19;19919;-82
2023/10/31 06:03:43;;;;;;;;;;;16.20;67.30;;;15.22;63.91;99032.47;12274837;19;19979;-83
2023/10/31 06:07:45;;;;;;;;;;;16.20;67.30;;;15.22;63.75;99024.59;12287991;19;19922;-82
2023/10/31 06:11:47;;;;;;;;;;;16.20;67.40;;;15.21;63.74;99023.75;12287713;19;19907;-82
2023/10/31 06:15:49;;;;;;;;;;;16.20;67.40;;;15.24;63.76;99036.59;12288017;19;19919;-83
2023/10/31 06:19:50;;;;;;;;;;;16.30;67.50;;;15.21;63.90;99038.72;12288275;19;19928;-83
2023/10/31 06:23:52;;;;;;;;;;;16.20;67.40;;;15.14;63.80;99037.69;12300871;19;19907;-80
2023/10/31 06:27:54;;;;;;;;;;;16.30;67.60;;;15.24;63.95;99056.81;12297693;19;19925;-83
2023/10/31 06:31:56;;;;;;;;;;;16.30;67.90;;;15.25;63.91;99061.09;12299798;19;19933;-83
2023/10/31 06:35:57;;;;;;;;;;;16.30;67.90;;;15.29;63.96;99075.59;12291323;19;20353;-83
2023/10/31 06:39:59;;;;;;;;;;;16.30;67.90;;;15.29;63.88;99074.78;12285652;19;19915;-83
2023/10/31 06:44:00;;;;;;;;;;;16.30;67.90;;;15.31;63.92;99076.25;12285906;19;19926;-83
2023/10/31 06:48:03;;;;;;;;;;;16.30;68.10;;;15.33;64.04;99074.28;12285787;19;19936;-83
2023/10/31 06:52:05;;;;;;;;;;;16.30;68.10;;;15.35;64.00;99077.59;12285001;19;19935;-83
2023/10/31 06:56:07;;;;;;;;;;;16.30;68.40;;;15.36;64.00;99081.03;12284028;19;19911;-83
2023/10/31 07:00:10;;;;;;;;;;;16.40;68.30;;;15.39;64.03;99092.09;12278714;19;20238;-82
2023/10/31 07:04:11;;;;;;;;;;;16.40;68.40;;;15.41;64.01;99099.81;12287818;19;20197;-82
2023/10/31 07:08:13;;;;;;;;;;;16.40;68.40;;;15.45;64.05;99101.16;12293120;19;19934;-83
2023/10/31 07:12:15;;;;;;;;;;;16.40;68.60;;;15.40;63.97;99095.53;12287559;19;19942;-82
2023/10/31 07:16:17;;;;;;;;;;;16.50;68.80;;;15.47;64.01;99105.28;12286706;19;19927;-83
2023/10/31 07:20:18;;;;;;;;;;;16.50;68.90;;;15.52;64.11;99122.41;12286322;19;19927;-82
2023/10/31 07:24:20;;;;;;;;;;;16.50;69.70;;;15.48;64.05;99120.09;12293587;19;19933;-81
2023/10/31 07:28:22;;;;;;;;;;;16.60;69.20;;;15.56;64.02;99123.75;12288545;19;19923;-83
2023/10/31 07:32:24;;;;;;;;;;;16.60;69.10;;;15.59;64.17;99131.31;12287667;19;19926;-82
2023/10/31 07:36:26;;;;;;;;;;;16.60;69.10;;;15.61;64.20;99132.81;12291733;19;19971;-83
2023/10/31 07:40:27;;;;;;;;;;;16.60;69.20;;;15.64;64.14;99136.94;12288997;19;19911;-82
2023/10/31 07:44:30;;;;;;;;;;;16.60;69.20;;;15.54;64.10;99130.97;12293989;19;19950;-82
2023/10/31 07:48:32;;;;;;;;;;;16.70;69.40;;;15.65;64.16;99155.19;12292476;19;19923;-82
2023/10/31 07:52:33;;;;;;;;;;;16.70;69.70;;;15.64;64.20;99161.44;12295230;19;19942;-82
2023/10/31 07:56:36;;;;;;;;;;;16.70;70.00;;;15.55;64.21;99148.38;12294825;19;19907;-82
2023/10/31 08:00:39;;;;;;;;;;;16.70;69.40;;;15.54;64.20;99166.00;12293882;19;19925;-82
2023/10/31 08:04:40;;;;;;;;;;;16.70;69.20;;;15.51;64.11;99183.91;12291922;19;19930;-81
2023/10/31 08:08:42;;;;;;;;;;;16.60;68.60;;;15.43;64.19;99174.16;12292569;19;19934;-81
2023/10/31 08:12:43;;;;;;;;;;;16.60;68.00;;;15.33;64.11;99179.50;12289385;19;19944;-83
2023/10/31 08:16:44;;;;;;;;;;;16.50;67.70;;;15.18;64.23;99181.84;12286131;19;19944;-82
2023/10/31 08:20:48;;;;;;;;;;;16.40;67.50;;;15.25;64.11;99200.47;12281072;19;19925;-81
2023/10/31 08:24:50;;;;;;;;;;;16.40;67.60;;;15.23;64.33;99203.25;12286535;19;19914;-83
2023/10/31 08:28:52;;;;;;;;;;;16.30;67.70;;;15.22;64.37;99221.81;12287733;19;19986;-82
2023/10/31 08:32:53;;;;;;;;;;;16.30;67.90;;;15.16;64.34;99223.25;12284952;19;19938;-82
2023/10/31 08:36:57;;;;;;;;;;;16.30;67.60;;;15.09;64.42;99221.38;12289645;19;19952;-82
2023/10/31 08:40:59;;;;;;;;;;;16.20;67.60;;;15.17;64.26;99256.44;12281182;19;19923;-82
2023/10/31 08:45:00;;;;;;;;;;;16.20;67.50;;;15.13;64.44;99260.38;12288215;19;19914;-81
2023/10/31 08:49:02;;;;;;;;;;;16.20;67.40;;;15.11;64.29;99256.22;12286579;19;19974;-82
2023/10/31 08:53:04;;;;;;;;;;;16.20;67.40;;;15.03;64.56;99243.84;12280301;19;19922;-81
2023/10/31 08:57:06;;;;;;;;;;;16.20;67.20;;;15.07;64.37;99255.72;12267689;19;19919;-81
2023/10/31 09:01:07;;;;;;;;;;;16.20;67.00;;;15.00;64.34;99238.88;12264922;19;19953;-82
2023/10/31 09:05:08;;;;;;;;;;;16.20;67.00;;;14.99;64.45;99263.53;12268685;19;19915;-82
2023/10/31 09:09:10;;;;;;;;;;;16.10;66.50;;;14.98;64.38;99269.75;12268304;19;20492;-81
2023/10/31 09:13:13;;;;;;;;;;;16.10;66.70;;;14.95;64.28;99273.50;12266262;19;19911;-82
2023/10/31 09:17:14;;;;;;;;;;;16.10;66.50;;;14.95;64.55;99289.25;12269475;19;19979;-82
2023/10/31 09:21:16;;;;;;;;;;;16.10;65.90;;;14.92;64.30;99281.69;12278770;19;19940;-83
2023/10/31 09:25:17;;;;;;;;;;;16.10;66.00;;;14.99;64.28;99290.63;12281025;19;20265;-82
2023/10/31 09:29:19;;;;;;;;;;;16.10;64.30;;;14.92;64.31;99270.34;12277487;19;19929;-84
2023/10/31 09:33:21;;;;;;;;;;;16.10;65.10;;;14.96;64.24;99300.59;12281671;19;20259;-81
2023/10/31 09:37:22;;;;;;;;;;;16.10;65.10;;;14.99;64.38;99310.84;12280372;19;20714;-81
2023/10/31 09:41:24;;;;;;;;;;;16.10;64.70;;;14.91;64.22;99298.44;12277261;19;19930;-83
2023/10/31 09:45:26;;;;;;;;;;;16.10;65.30;;;14.98;64.54;99311.78;12287792;19;19949;-82
2023/10/31 09:49:28;;;;;;;;;;;16.10;65.30;;;15.02;64.44;99327.13;12283827;19;19919;-82
2023/10/31 09:53:32;;;;;;;;;;;16.10;65.30;;;14.97;64.34;99310.97;12282969;19;20002;-82
2023/10/31 09:57:33;;;;;;;;;;;16.10;65.10;;;15.05;64.16;99332.09;12293854;19;19925;-82
2023/10/31 10:01:35;;;;;;;;;;;16.10;65.20;;;14.96;64.31;99317.22;12288619;19;19914;-81
2023/10/31 10:05:38;;;;;;;;;;;16.10;64.90;;;15.02;64.26;99332.41;12289742;19;19915;-83
2023/10/31 10:09:40;;;;;;;;;;;16.10;64.80;;;14.94;64.37;99307.81;12285948;19;19954;-83
2023/10/31 10:13:41;;;;;;;;;;;16.20;65.00;;;15.14;64.40;99340.88;12284478;19;19943;-83
2023/10/31 10:17:50;;;;;;;;;;;16.20;64.80;;;15.10;64.36;99341.34;12292876;19;19925;-82
2023/10/31 10:21:57;;;;;;;;;;;16.30;64.80;;;15.21;64.18;99355.13;12294293;19;19919;-82
2023/10/31 10:26:00;;;;;;;;;;;16.30;64.60;;;15.25;64.28;99347.75;12288995;19;19922;-82
2023/10/31 10:30:03;;;;;;;;;;;16.30;64.00;;;15.24;64.27;99340.84;12288195;19;19935;-82
2023/10/31 10:34:04;;;;;;;;;;;16.40;64.70;;;15.28;64.34;99339.56;12288860;19;19911;-82
2023/10/31 10:38:12;;;;;;;;;;;16.40;64.50;;;15.30;64.43;99344.69;12288757;19;19915;-82
2023/10/31 10:42:17;;;;;;;;;;;16.50;64.30;;;15.41;64.18;99349.72;12292187;19;19950;-82
2023/10/31 10:46:21;;;;;;;;;;;16.50;63.20;;;15.36;64.38;99350.16;12292758;19;19911;-82
2023/10/31 10:50:29;;;;;;;;;;;16.50;59.30;;;15.39;64.27;99360.41;12285281;19;19911;-83
2023/10/31 10:54:45;;;;;;;;;;;16.50;58.20;;;15.35;63.97;99356.41;12288866;19;19950;-83
2023/10/31 10:59:08;;;;;;;;;;;16.50;61.10;;;15.42;64.04;99354.03;12289745;19;19923;-81
2023/10/31 11:03:10;;;;;;;;;;;16.60;61.50;;;15.37;64.13;99343.94;12292758;19;19911;-83
2023/10/31 11:07:12;;;;;;;;;;;16.60;61.90;;;15.41;63.97;99341.81;12288087;19;19926;-83
2023/10/31 11:11:17;;;;;;;;;;;16.60;62.00;;;15.51;64.19;99347.84;12282927;19;19933;-82
2023/10/31 11:15:19;;;;;;;;;;;16.60;62.30;;;15.55;64.14;99348.34;12283090;19;19919;-82
2023/10/31 11:19:22;;;;;;;;;;;16.70;61.70;;;15.51;64.14;99323.34;12283861;19;19923;-81
2023/10/31 11:23:24;;;;;;;;;;;16.70;61.50;;;15.73;64.05;99351.03;12285582;19;20281;-82
2023/10/31 11:27:26;;;;;;;;;;;16.80;62.20;;;15.73;63.88;99346.59;12289558;19;19911;-83
2023/10/31 11:31:27;;;;;;;;;;;16.80;62.60;;;15.83;64.13;99355.22;12286602;19;20324;-83
2023/10/31 11:35:30;;;;;;;;;;;17.00;62.30;;;15.92;64.02;99353.47;12284604;19;19923;-83
2023/10/31 11:39:32;;;;;;;;;;;17.10;60.80;;;16.03;63.83;99362.94;12286814;19;19954;-83
2023/10/31 11:43:39;;;;;;;;;;;17.10;60.80;;;16.09;63.97;99362.31;12291243;19;20127;-82
2023/10/31 11:47:49;;;;;;;;;;;17.20;61.90;;;16.12;63.84;99368.13;12285863;19;20255;-82
2023/10/31 11:51:50;;;;;;;;;;;17.30;62.30;;;16.07;63.91;99364.31;12283160;19;19935;-84
2023/10/31 11:55:56;;;;;;;;;;;17.30;60.90;;;16.13;63.60;99380.31;12284492;19;19919;-84
2023/10/31 11:59:58;;;;;;;;;;;17.30;61.20;;;16.15;63.62;99393.34;12278793;19;19926;-83
2023/10/31 12:04:00;;;;;;;;;;;17.30;60.60;;;16.07;63.76;99382.75;12282682;19;19922;-82
2023/10/31 12:08:02;;;;;;;;;;;17.30;61.30;;;16.10;63.79;99398.22;12281551;19;19923;-81
2023/10/31 12:12:04;;;;;;;;;;;17.30;61.10;;;16.07;63.77;99377.47;12285197;19;20284;-82
2023/10/31 12:16:08;;;;;;;;;;;17.30;61.40;;;16.09;63.51;99393.91;12284965;19;19930;-81
2023/10/31 12:20:11;;;;;;;;;;;17.20;61.20;;;16.01;63.66;99386.78;12279036;19;19923;-82
2023/10/31 12:24:17;;;;;;;;;;;17.20;61.70;;;16.03;63.81;99410.34;12284109;19;19915;-83
2023/10/31 12:28:20;;;;;;;;;;;17.20;61.90;;;16.00;63.67;99394.84;12285789;19;19915;-81
2023/10/31 12:32:22;;;;;;;;;;;17.10;61.30;;;16.06;63.58;99410.03;12287457;19;19922;-82
2023/10/31 12:36:25;;;;;;;;;;;17.20;62.00;;;15.99;63.65;99406.38;12288513;19;20476;-81
2023/10/31 12:40:27;;;;;;;;;;;17.20;61.70;;;15.98;63.32;99420.50;12286648;19;20292;-81
2023/10/31 12:44:29;;;;;;;;;;;17.10;61.10;;;16.01;63.74;99422.81;12282984;19;19915;-82
2023/10/31 12:48:30;;;;;;;;;;;17.10;62.00;;;15.97;63.53;99438.09;12287942;19;19907;-81
2023/10/31 12:52:52;;;;;;;;;;;17.10;62.30;;;15.85;63.53;99432.25;12285099;19;19930;-83
2023/10/31 12:56:54;;;;;;;;;;;17.10;62.00;;;15.96;63.71;99451.41;12289171;19;19907;-83
2023/10/31 13:00:56;;;;;;;;;;;17.10;62.30;;;15.96;63.48;99446.16;12283421;19;20322;-82
2023/10/31 13:05:10;;;;;;;;;;;17.00;61.90;;;15.93;63.51;99452.53;12287226;19;19921;-83
2023/10/31 13:09:12;;;;;;;;;;;17.10;61.90;;;15.95;63.44;99468.19;12283564;19;19933;-83
2023/10/31 13:13:13;;;;;;;;;;;17.00;62.20;;;15.89;63.48;99470.44;12284361;19;20272;-83
2023/10/31 13:17:15;;;;;;;;;;;17.00;62.10;;;15.90;63.53;99482.66;12286129;19;19942;-83
2023/10/31 13:21:17;;;;;;;;;;;17.00;61.40;;;15.85;63.75;99481.41;12282121;19;19922;-82
2023/10/31 13:25:18;;;;;;;;;;;17.00;61.80;;;15.92;63.53;99493.03;12286442;19;19930;-83
2023/10/31 13:29:20;;;;;;;;;;;17.00;61.70;;;15.95;63.61;99495.34;12282180;19;19923;-85
2023/10/31 13:33:22;;;;;;;;;;;17.00;61.60;;;15.91;63.35;99479.03;12275778;19;19930;-84
2023/10/31 13:37:24;;;;;;;;;;;17.00;61.80;;;15.80;63.25;99468.72;12276319;19;19921;-82
2023/10/31 13:41:27;;;;;;;;;;;17.00;61.20;;;15.91;63.30;99483.47;12271869;19;19957;-82
2023/10/31 13:45:29;;;;;;;;;;;17.00;61.90;;;15.86;63.33;99489.19;12280019;19;19933;-83
2023/10/31 13:49:30;;;;;;;;;;;17.00;60.70;;;15.92;63.35;99508.81;12280971;19;19914;-83
2023/10/31 13:53:32;;;;;;;;;;;17.00;61.90;;;15.91;63.33;99533.50;12280865;19;19939;-82
2023/10/31 13:57:34;;;;;;;;;;;17.00;61.50;;;15.81;63.31;99525.66;12280551;19;19910;-80
2023/10/31 14:01:35;;;;;;;;;;;17.00;61.00;;;15.88;63.31;99552.22;12280617;19;19956;-82
2023/10/31 14:05:38;;;;;;;;;;;16.90;61.50;;;15.85;63.06;99548.09;12283539;19;19950;-83
2023/10/31 14:09:39;;;;;;;;;;;17.00;61.20;;;15.77;63.38;99542.72;12280183;19;20298;-83
2023/10/31 14:13:42;;;;;;;;;;;16.90;59.70;;;15.73;63.24;99575.56;12279823;19;19915;-83
2023/10/31 14:17:44;;;;;;;;;;;16.90;59.90;;;15.79;63.33;99588.16;12284329;19;19944;-83
2023/10/31 14:21:46;;;;;;;;;;;16.80;61.10;;;15.77;63.14;99594.53;12283128;19;19954;-82
2023/10/31 14:25:47;;;;;;;;;;;16.80;61.10;;;15.73;63.18;99604.53;12284135;19;19927;-82
2023/10/31 14:29:49;;;;;;;;;;;16.80;59.40;;;15.58;63.19;99601.53;12281558;19;19926;-83
2023/10/31 14:33:50;;;;;;;;;;;16.80;61.00;;;15.59;63.04;99618.13;12279295;19;19918;-83
2023/10/31 14:37:52;;;;;;;;;;;16.70;61.10;;;15.47;63.15;99605.16;12280919;19;19927;-83
2023/10/31 14:41:54;;;;;;;;;;;16.70;61.60;;;15.49;63.00;99621.63;12288593;19;19921;-82
2023/10/31 14:45:56;;;;;;;;;;;16.60;61.80;;;15.55;63.17;99637.81;12297186;19;19942;-82
2023/10/31 14:49:57;;;;;;;;;;;16.60;62.10;;;15.57;63.15;99641.94;12290008;19;19918;-81
2023/10/31 14:53:59;;;;;;;;;;;16.60;62.30;;;15.57;63.08;99649.03;12289964;19;19945;-83
2023/10/31 14:58:01;;;;;;;;;;;16.60;62.20;;;15.55;62.94;99657.03;12291037;19;19918;-83
2023/10/31 15:02:03;;;;;;;;;;;16.60;62.30;;;15.51;63.04;99665.38;12293989;19;20276;-82
2023/10/31 15:06:07;;;;;;;;;;;16.50;62.10;;;15.47;63.11;99673.56;12290135;19;19911;-81
2023/10/31 15:10:08;;;;;;;;;;;16.50;62.40;;;15.47;62.99;99677.97;12289409;19;19929;-82
2023/10/31 15:14:10;;;;;;;;;;;16.50;62.50;;;15.41;63.11;99710.94;12288975;19;19919;-82
2023/10/31 15:18:12;;;;;;;;;;;16.40;62.80;;;15.34;62.94;99720.41;12295014;19;19915;-83
2023/10/31 15:22:14;;;;;;;;;;;16.40;62.80;;;15.23;63.02;99702.97;12295389;19;19911;-80
2023/10/31 15:26:15;;;;;;;;;;;16.30;62.90;;;15.19;63.15;99716.53;12296044;19;20375;-81
2023/10/31 15:30:17;;;;;;;;;;;16.30;63.10;;;15.13;63.07;99706.56;12290808;19;19926;-81
2023/10/31 15:34:18;;;;;;;;;;;16.20;63.10;;;15.06;62.94;99716.78;12292350;19;19923;-81
2023/10/31 15:38:20;;;;;;;;;;;16.10;63.20;;;15.04;63.01;99730.09;12289480;19;19929;-82
2023/10/31 15:42:21;;;;;;;;;;;16.00;63.20;;;14.87;63.00;99717.63;12293036;19;19930;-82
2023/10/31 15:46:23;;;;;;;;;;;16.00;63.40;;;14.91;62.97;99728.72;12292854;19;19927;-81
2023/10/31 15:50:25;;;;;;;;;;;16.00;63.60;;;14.89;62.98;99736.72;12286511;19;19923;-82
2023/10/31 15:54:28;;;;;;;;;;;15.90;63.70;;;14.85;63.08;99745.81;12288670;19;19959;-83
2023/10/31 15:58:30;;;;;;;;;;;15.90;63.80;;;14.83;62.98;99747.78;12290373;19;19915;-81
2023/10/31 16:02:31;;;;;;;;;;;15.80;63.90;;;14.79;63.02;99756.88;12291493;19;19952;-81
2023/10/31 16:06:33;;;;;;;;;;;15.80;64.00;;;14.78;63.13;99768.38;12290998;19;19942;-81
2023/10/31 16:10:34;;;;;;;;;;;15.70;64.10;;;14.77;63.01;99771.97;12296042;19;19926;-81
2023/10/31 16:14:36;;;;;;;;;;;15.70;64.20;;;14.74;63.18;99770.47;12294915;19;19958;-81
2023/10/31 16:18:38;;;;;;;;;;;15.70;64.30;;;14.69;63.19;99771.81;12297332;19;20032;-81
2023/10/31 16:22:39;;;;;;;;;;;15.70;64.40;;;14.71;62.92;99796.97;12296574;19;19923;-81
2023/10/31 16:26:41;;;;;;;;;;;15.60;64.30;;;14.68;62.90;99796.44;12292674;19;19930;-81
2023/10/31 16:30:46;;;;;;;;;;;15.70;64.50;;;14.68;63.13;99791.19;12292462;19;20356;-81
2023/10/31 16:34:51;;;;;;;;;;;15.60;64.60;;;14.68;63.04;99801.69;12294239;19;19926;-81
2023/10/31 16:38:53;;;;;;;;;;;15.60;64.70;;;14.65;63.08;99804.59;12296528;19;19919;-81
2023/10/31 16:42:55;;;;;;;;;;;15.60;64.70;;;14.67;63.12;99808.75;12298868;19;19921;-82
2023/10/31 16:46:57;;;;;;;;;;;15.60;64.80;;;14.66;62.98;99811.50;12297594;19;19922;-81
2023/10/31 16:50:59;;;;;;;;;;;15.60;64.80;;;14.56;63.11;99808.84;12294452;19;19939;-81
2023/10/31 16:55:02;;;;;;;;;;;15.60;64.90;;;14.58;62.95;99801.66;12293620;19;19954;-81
2023/10/31 16:59:04;;;;;;;;;;;15.60;64.90;;;14.53;62.97;99794.19;12293256;19;19927;-81
2023/10/31 17:03:11;;;;;;;;;;;15.60;65.00;;;14.58;62.94;99807.75;12296428;19;19942;-81
2023/10/31 17:07:13;;;;;;;;;;;15.60;65.00;;;14.64;62.96;99823.97;12292212;19;19915;-82
2023/10/31 17:11:14;;;;;;;;;;;15.60;65.00;;;14.51;62.97;99806.59;12275330;19;19925;-82
2023/10/31 17:15:16;;;;;;;;;;;15.60;65.00;;;14.63;63.05;99835.41;12290341;19;19953;-81
2023/10/31 17:19:17;;;;;;;;;;;15.60;65.00;;;14.55;63.12;99820.31;12287177;19;19926;-82
2023/10/31 17:23:19;;;;;;;;;;;15.60;65.00;;;14.63;63.15;99836.25;12291898;19;19926;-81
2023/10/31 17:27:21;;;;;;;;;;;15.60;65.00;;;14.57;63.11;99832.34;12283429;19;19927;-84
2023/10/31 17:31:22;;;;;;;;;;;15.50;64.90;;;14.55;63.12;99842.16;12276054;19;19926;-81
2023/10/31 17:35:24;;;;;;;;;;;15.60;65.00;;;14.45;63.02;99833.38;12287810;19;20256;-82
2023/10/31 17:39:25;;;;;;;;;;;15.60;65.00;;;14.58;63.12;99854.19;12287669;19;19918;-81
2023/10/31 17:43:28;;;;;;;;;;;15.60;65.00;;;14.57;62.97;99869.13;12290170;19;19922;-82
2023/10/31 17:47:29;;;;;;;;;;;15.50;64.90;;;14.57;63.15;99863.88;12288337;19;19978;-82
2023/10/31 17:51:31;;;;;;;;;;;15.60;65.00;;;14.56;62.99;99872.72;12284042;19;19927;-81
2023/10/31 17:55:32;;;;;;;;;;;15.50;64.80;;;14.56;63.13;99880.63;12283846;19;19928;-81
2023/10/31 17:59:34;;;;;;;;;;;15.50;64.80;;;14.32;63.07;99856.41;12288029;19;19929;-82
2023/10/31 18:03:35;;;;;;;;;;;15.50;64.70;;;14.56;63.01;99898.19;12291498;19;19929;-82
2023/10/31 18:07:38;;;;;;;;;;;15.50;64.70;;;14.51;62.97;99905.59;12284986;19;19923;-83
2023/10/31 18:11:40;;;;;;;;;;;15.50;64.60;;;14.50;63.04;99915.28;12275104;19;19926;-83
2023/10/31 18:15:42;;;;;;;;;;;15.50;64.70;;;14.46;63.01;99910.41;12280169;19;19927;-83
2023/10/31 18:19:43;;;;;;;;;;;15.50;64.70;;;14.43;63.09;99915.91;12293883;19;19936;-83